createdAt,value
2023-05-06T00:02:47.436Z,14.70
2023-05-06T00:07:50.152Z,8.85
2023-05-06T00:12:52.811Z,7.43
2023-05-06T00:17:55.781Z,8.60
2023-05-06T00:22:59.208Z,10.68
2023-05-06T00:28:01.976Z,7.45
2023-05-06T00:33:06.927Z,12.43
2023-05-06T00:38:11.391Z,10.88
2023-05-06T00:43:14.095Z,9.50
2023-05-06T00:48:18.263Z,14.10
2023-05-06T00:53:23.893Z,10.05
2023-05-06T00:58:26.660Z,11.10
2023-05-06T01:03:29.761Z,9.63
2023-05-06T01:08:36.304Z,7.63
2023-05-06T01:13:52.796Z,13.10
2023-05-06T01:18:55.642Z,9.85
2023-05-06T01:23:59.021Z,16.77
2023-05-06T01:29:02.722Z,11.82
2023-05-06T01:34:21.444Z,18.77
2023-05-06T01:39:30.950Z,7.95
2023-05-06T01:44:34.445Z,15.63
2023-05-06T01:49:37.935Z,17.15
2023-05-06T01:54:40.692Z,19.58
2023-05-06T01:59:50.768Z,13.68
2023-05-06T02:04:57.116Z,14.35
2023-05-06T02:10:00.919Z,17.98
2023-05-06T02:15:08.422Z,16.45
2023-05-06T02:20:11.385Z,16.70
2023-05-06T02:25:14.023Z,9.82
2023-05-06T02:30:16.835Z,11.13
2023-05-06T02:35:22.002Z,9.05
2023-05-06T02:40:25.700Z,15.23
2023-05-06T02:45:29.590Z,14.32
2023-05-06T02:50:34.765Z,21.65
2023-05-06T02:55:40.870Z,13.50
2023-05-06T03:00:43.517Z,15.88
2023-05-06T03:05:46.688Z,19.33
2023-05-06T03:10:50.322Z,17.92
2023-05-06T03:15:55.158Z,19.05
2023-05-06T03:20:58.225Z,12.80
2023-05-06T03:26:01.687Z,13.82
2023-05-06T03:31:05.974Z,16.83
2023-05-06T03:36:14.096Z,13.43
2023-05-06T03:41:21.376Z,19.25
2023-05-06T03:46:24.735Z,22.60
2023-05-06T03:51:32.660Z,17.27
2023-05-06T03:56:36.121Z,13.27
2023-05-06T04:01:40.854Z,22.13
2023-05-06T04:06:44.990Z,26.70
2023-05-06T04:11:49.059Z,16.83
2023-05-06T04:16:54.616Z,15.80
2023-05-06T04:21:58.499Z,23.02
2023-05-06T04:27:03.310Z,19.03
2023-05-06T04:32:06.540Z,27.08
2023-05-06T04:37:13.803Z,39.67
2023-05-06T04:42:42.919Z,30.55
2023-05-06T04:47:52.501Z,32.40
2023-05-06T04:52:56.201Z,29.98
2023-05-06T04:57:59.200Z,33.22
2023-05-06T05:03:02.587Z,31.02
2023-05-06T05:08:05.620Z,34.33
2023-05-06T05:13:13.547Z,31.33
2023-05-06T05:18:19.098Z,25.40
2023-05-06T05:23:23.834Z,27.63
2023-05-06T05:28:26.633Z,31.60
2023-05-06T05:33:30.777Z,34.80
2023-05-06T05:38:33.904Z,37.72
2023-05-06T05:43:36.953Z,37.30
2023-05-06T05:48:41.058Z,45.30
2023-05-06T05:53:44.400Z,52.25
2023-05-06T05:58:48.172Z,64.13
2023-05-06T06:03:51.554Z,68.25
2023-05-06T06:08:56.871Z,73.78
2023-05-06T06:14:00.137Z,73.32
2023-05-06T06:19:03.258Z,68.57
2023-05-06T06:24:07.287Z,60.40
2023-05-06T06:29:10.005Z,58.25
2023-05-06T06:34:13.114Z,58.92
2023-05-06T06:39:18.910Z,69.53
2023-05-06T06:44:21.626Z,67.95
2023-05-06T06:49:24.406Z,67.25
2023-05-06T06:54:28.163Z,105.32
2023-05-06T06:59:31.768Z,89.40
2023-05-06T07:04:34.886Z,77.70
2023-05-06T07:09:40.334Z,62.53
2023-05-06T07:14:43.082Z,62.55
2023-05-06T07:19:45.779Z,57.55
2023-05-06T07:24:48.482Z,52.33
2023-05-06T07:29:51.334Z,58.03
2023-05-06T07:34:54.021Z,60.45
2023-05-06T07:39:59.371Z,53.45
2023-05-06T07:45:02.181Z,52.75
2023-05-06T07:50:06.979Z,52.10
2023-05-06T07:55:10.270Z,51.90
2023-05-06T08:00:13.378Z,47.33
2023-05-06T08:05:18.459Z,49.65
2023-05-06T08:10:24.555Z,48.00
2023-05-06T08:15:27.264Z,50.35
2023-05-06T08:20:31.650Z,52.95
2023-05-06T08:25:34.513Z,54.67
2023-05-06T08:30:37.219Z,47.30
2023-05-06T08:35:40.018Z,42.72
2023-05-06T08:40:44.283Z,46.38
2023-05-06T08:45:47.186Z,46.47
2023-05-06T08:50:51.074Z,41.05
2023-05-06T08:55:57.113Z,35.38
2023-05-06T09:01:02.868Z,41.33
2023-05-06T09:06:05.746Z,40.22
2023-05-06T09:11:25.377Z,39.22
2023-05-06T09:16:29.732Z,39.92
2023-05-06T09:21:40.838Z,28.05
2023-05-06T09:26:45.114Z,32.85
2023-05-06T09:31:48.504Z,33.28
2023-05-06T09:36:52.992Z,31.90
2023-05-06T09:41:55.648Z,32.92
2023-05-06T09:46:58.283Z,34.40
2023-05-06T09:52:00.982Z,30.08
2023-05-06T09:57:06.850Z,27.42
2023-05-06T10:07:15.350Z,28.08
2023-05-06T10:12:18.419Z,28.20
2023-05-06T10:17:26.403Z,25.33
2023-05-06T10:22:49.459Z,23.67
2023-05-06T10:27:52.429Z,21.48
2023-05-06T10:32:57.837Z,25.05
2023-05-06T10:38:24.407Z,25.13
2023-05-06T10:43:32.408Z,27.80
2023-05-06T10:49:11.373Z,24.45
2023-05-06T10:54:47.429Z,14.77
2023-05-06T10:59:50.230Z,22.83
2023-05-06T11:05:00.340Z,20.60
2023-05-06T11:10:08.368Z,18.30
2023-05-06T11:15:21.529Z,17.70
2023-05-06T11:20:27.387Z,18.48
2023-05-06T11:25:43.152Z,17.25
2023-05-06T11:30:54.951Z,22.60
2023-05-06T11:35:57.582Z,19.10
2023-05-06T11:41:01.322Z,16.30
2023-05-06T11:46:04.085Z,13.60
2023-05-06T11:56:10.969Z,15.00
2023-05-06T12:01:14.862Z,23.92
2023-05-06T12:06:19.241Z,11.00
2023-05-06T12:11:22.132Z,18.98
2023-05-06T12:21:29.757Z,11.15
2023-05-06T12:26:48.408Z,11.60
2023-05-06T12:32:08.310Z,11.27
2023-05-06T12:37:11.246Z,14.38
2023-05-06T12:47:26.207Z,14.85
2023-05-06T12:52:30.780Z,9.13
2023-05-06T12:57:33.538Z,10.50
2023-05-06T13:02:37.103Z,11.40
2023-05-06T13:07:43.780Z,11.80
2023-05-06T13:12:46.479Z,8.85
2023-05-06T13:17:49.646Z,11.75
2023-05-06T13:22:55.051Z,8.85
2023-05-06T13:27:58.082Z,9.10
2023-05-06T13:33:01.095Z,12.52
2023-05-06T13:38:03.794Z,8.98
2023-05-06T13:53:12.966Z,13.77
2023-05-06T13:58:18.158Z,10.93
2023-05-06T14:03:21.060Z,12.38
2023-05-06T14:08:23.702Z,7.22
2023-05-06T14:13:27.750Z,7.53
2023-05-06T14:18:32.301Z,10.38
2023-05-06T14:23:35.168Z,6.53
2023-05-06T14:28:37.881Z,7.57
2023-05-06T14:43:45.652Z,10.10
2023-05-06T14:48:48.541Z,9.88
2023-05-06T14:53:53.172Z,10.50
2023-05-06T14:58:56.625Z,10.60
2023-05-06T15:03:59.492Z,6.13
2023-05-06T15:09:03.496Z,8.88
2023-05-06T15:14:06.142Z,8.80
2023-05-06T15:19:08.806Z,11.77
2023-05-06T15:24:11.633Z,7.50
2023-05-06T15:29:14.317Z,9.57
2023-05-06T15:39:20.040Z,7.05
2023-05-06T15:44:22.695Z,9.77
2023-05-06T15:49:51.096Z,7.05
2023-05-06T15:54:57.740Z,9.88
2023-05-06T16:00:02.508Z,6.43
2023-05-06T16:05:09.806Z,7.82
2023-05-06T16:10:12.695Z,10.68
2023-05-06T16:20:18.131Z,7.95
2023-05-06T16:25:21.252Z,8.38
2023-05-06T16:30:23.971Z,6.13
2023-05-06T16:35:26.666Z,8.18
2023-05-06T16:40:31.119Z,127.28
2023-05-06T16:45:33.979Z,76.60
2023-05-06T16:50:36.940Z,15.30
2023-05-06T16:55:39.763Z,11.60
2023-05-06T17:00:42.875Z,6.95
2023-05-06T17:10:48.425Z,12.25
2023-05-06T17:15:51.359Z,17.48
2023-05-06T17:21:00.930Z,9.55
2023-05-06T17:26:10.055Z,15.52
2023-05-06T17:31:15.188Z,11.48
2023-05-06T17:36:19.466Z,9.18
2023-05-06T17:41:22.244Z,10.90
2023-05-06T17:46:24.958Z,10.67
2023-05-06T17:51:27.647Z,8.82
2023-05-06T17:56:30.424Z,10.53
2023-05-06T18:01:33.066Z,11.52
2023-05-06T18:06:35.793Z,10.43
2023-05-06T18:11:41.843Z,11.50
2023-05-06T18:16:45.477Z,14.35
2023-05-06T18:21:48.190Z,16.60
2023-05-06T18:26:50.822Z,9.32
2023-05-06T18:32:00.321Z,6.90
2023-05-06T18:37:05.107Z,7.47
2023-05-06T18:42:23.887Z,8.70
2023-05-06T18:47:38.187Z,10.15
2023-05-06T18:52:50.279Z,7.45
2023-05-06T18:57:53.288Z,10.35
2023-05-06T19:02:56.265Z,10.40
2023-05-06T19:07:59.021Z,12.97
2023-05-06T19:13:02.613Z,7.32
2023-05-06T19:18:05.663Z,7.93
2023-05-06T19:23:09.515Z,8.63
2023-05-06T19:28:14.908Z,8.47
2023-05-06T19:33:23.158Z,8.23
2023-05-06T19:38:30.773Z,9.70
2023-05-06T19:43:33.533Z,8.43
2023-05-06T19:48:36.988Z,8.27
2023-05-06T19:53:46.811Z,8.02
2023-05-06T19:58:52.170Z,10.98
2023-05-06T20:03:58.945Z,11.65
2023-05-06T20:09:01.959Z,9.88
2023-05-06T20:14:04.974Z,11.00
2023-05-06T20:19:08.367Z,11.20
2023-05-06T20:24:11.637Z,11.45
2023-05-06T20:29:14.476Z,11.50
2023-05-06T20:34:20.155Z,12.77
2023-05-06T20:39:27.668Z,11.02
2023-05-06T20:44:30.561Z,9.98
2023-05-06T20:49:35.595Z,10.75
2023-05-06T20:54:38.503Z,10.20
2023-05-06T20:59:43.626Z,10.05
2023-05-06T21:04:46.655Z,9.85
2023-05-06T21:09:49.351Z,12.55
2023-05-06T21:14:52.046Z,12.00
2023-05-06T21:19:55.500Z,12.90
2023-05-06T21:24:58.252Z,10.77
2023-05-06T21:30:01.054Z,15.15
2023-05-06T21:35:04.030Z,13.48
2023-05-06T21:40:09.996Z,15.70
2023-05-06T21:45:12.996Z,12.38
2023-05-06T21:50:15.852Z,13.70
2023-05-06T21:55:19.351Z,12.63
2023-05-06T22:00:23.039Z,13.30
2023-05-06T22:05:25.960Z,12.40
2023-05-06T22:10:28.646Z,19.38
2023-05-06T22:15:31.487Z,13.50
2023-05-06T22:20:36.601Z,13.43
2023-05-06T22:25:39.314Z,23.08
2023-05-06T22:30:42.842Z,14.43
2023-05-06T22:35:45.380Z,8.88
2023-05-06T22:40:48.059Z,13.02
2023-05-06T22:45:51.063Z,10.85
2023-05-06T22:50:53.810Z,13.73
2023-05-06T22:55:56.440Z,16.55
2023-05-06T23:00:59.356Z,12.88
2023-05-06T23:06:20.635Z,10.20
2023-05-06T23:11:24.292Z,12.35
2023-05-06T23:16:29.488Z,9.65
2023-05-06T23:21:32.302Z,11.85
2023-05-06T23:26:34.920Z,10.77
2023-05-06T23:31:37.580Z,10.88
2023-05-06T23:36:40.275Z,13.98
2023-05-06T23:41:43.382Z,10.68
2023-05-06T23:46:45.976Z,11.32
2023-05-06T23:51:48.603Z,15.13
2023-05-06T23:56:51.342Z,19.83
